sensor_id;sensor_type;location;lat;lon;timestamp;P1;durP1;ratioP1;P2;durP2;ratioP2
46815;SDS011;32787;53.316;8.670;2022-07-04T00:00:08;12.75;;;6.90;;
46815;SDS011;32787;53.316;8.670;2022-07-04T00:02:37;11.30;;;7.03;;
46815;SDS011;32787;53.316;8.670;2022-07-04T00:05:05;13.88;;;6.95;;
46815;SDS011;32787;53.316;8.670;2022-07-04T00:07:43;13.30;;;7.35;;
46815;SDS011;32787;53.316;8.670;2022-07-04T00:10:15;13.23;;;6.53;;
46815;SDS011;32787;53.316;8.670;2022-07-04T00:12:43;12.27;;;7.32;;
46815;SDS011;32787;53.316;8.670;2022-07-04T00:15:09;10.60;;;7.10;;
46815;SDS011;32787;53.316;8.670;2022-07-04T00:17:36;10.18;;;6.80;;
46815;SDS011;32787;53.316;8.670;2022-07-04T00:20:03;11.80;;;7.68;;
46815;SDS011;32787;53.316;8.670;2022-07-04T00:22:29;11.73;;;7.45;;
46815;SDS011;32787;53.316;8.670;2022-07-04T00:24:55;14.93;;;7.85;;
46815;SDS011;32787;53.316;8.670;2022-07-04T00:27:21;12.30;;;7.47;;
46815;SDS011;32787;53.316;8.670;2022-07-04T00:29:46;9.27;;;7.25;;
46815;SDS011;32787;53.316;8.670;2022-07-04T00:32:12;10.90;;;7.13;;
46815;SDS011;32787;53.316;8.670;2022-07-04T00:34:37;12.55;;;7.75;;
46815;SDS011;32787;53.316;8.670;2022-07-04T00:37:03;13.30;;;7.28;;
46815;SDS011;32787;53.316;8.670;2022-07-04T00:39:29;10.82;;;7.20;;
46815;SDS011;32787;53.316;8.670;2022-07-04T00:41:55;10.95;;;7.68;;
46815;SDS011;32787;53.316;8.670;2022-07-04T00:44:21;11.43;;;7.32;;
46815;SDS011;32787;53.316;8.670;2022-07-04T00:46:47;11.48;;;7.50;;
46815;SDS011;32787;53.316;8.670;2022-07-04T00:49:14;11.38;;;6.57;;
46815;SDS011;32787;53.316;8.670;2022-07-04T00:51:42;10.52;;;7.20;;
46815;SDS011;32787;53.316;8.670;2022-07-04T00:54:10;9.90;;;6.60;;
46815;SDS011;32787;53.316;8.670;2022-07-04T00:56:38;10.93;;;7.95;;
46815;SDS011;32787;53.316;8.670;2022-07-04T00:59:05;10.98;;;7.13;;
46815;SDS011;32787;53.316;8.670;2022-07-04T01:01:31;12.93;;;7.43;;
46815;SDS011;32787;53.316;8.670;2022-07-04T01:03:57;10.48;;;6.65;;
46815;SDS011;32787;53.316;8.670;2022-07-04T01:06:23;10.43;;;7.47;;
46815;SDS011;32787;53.316;8.670;2022-07-04T01:08:49;11.93;;;7.35;;
46815;SDS011;32787;53.316;8.670;2022-07-04T01:11:14;11.98;;;7.68;;
46815;SDS011;32787;53.316;8.670;2022-07-04T01:13:41;14.52;;;8.48;;
46815;SDS011;32787;53.316;8.670;2022-07-04T01:16:07;12.13;;;7.50;;
46815;SDS011;32787;53.316;8.670;2022-07-04T01:18:34;13.90;;;7.78;;
46815;SDS011;32787;53.316;8.670;2022-07-04T01:21:00;12.15;;;7.20;;
46815;SDS011;32787;53.316;8.670;2022-07-04T01:23:26;12.23;;;7.95;;
46815;SDS011;32787;53.316;8.670;2022-07-04T01:25:51;12.45;;;7.57;;
46815;SDS011;32787;53.316;8.670;2022-07-04T01:28:18;12.48;;;8.40;;
46815;SDS011;32787;53.316;8.670;2022-07-04T01:30:44;14.20;;;7.88;;
46815;SDS011;32787;53.316;8.670;2022-07-04T01:33:10;15.98;;;8.55;;
46815;SDS011;32787;53.316;8.670;2022-07-04T01:35:36;13.15;;;8.02;;
46815;SDS011;32787;53.316;8.670;2022-07-04T01:38:01;12.90;;;8.25;;
46815;SDS011;32787;53.316;8.670;2022-07-04T01:40:27;13.65;;;8.48;;
46815;SDS011;32787;53.316;8.670;2022-07-04T01:42:53;17.35;;;8.57;;
46815;SDS011;32787;53.316;8.670;2022-07-04T01:45:18;12.43;;;8.45;;
46815;SDS011;32787;53.316;8.670;2022-07-04T01:47:44;13.68;;;8.35;;
46815;SDS011;32787;53.316;8.670;2022-07-04T01:50:10;15.90;;;8.73;;
46815;SDS011;32787;53.316;8.670;2022-07-04T01:52:39;12.07;;;8.00;;
46815;SDS011;32787;53.316;8.670;2022-07-04T01:55:05;14.80;;;7.97;;
46815;SDS011;32787;53.316;8.670;2022-07-04T01:57:32;11.85;;;8.13;;
46815;SDS011;32787;53.316;8.670;2022-07-04T01:59:58;11.85;;;7.72;;
46815;SDS011;32787;53.316;8.670;2022-07-04T02:02:42;13.00;;;7.00;;
46815;SDS011;32787;53.316;8.670;2022-07-04T02:05:08;11.02;;;7.82;;
46815;SDS011;32787;53.316;8.670;2022-07-04T02:07:34;11.30;;;8.10;;
46815;SDS011;32787;53.316;8.670;2022-07-04T02:10:00;14.02;;;8.00;;
46815;SDS011;32787;53.316;8.670;2022-07-04T02:12:26;14.95;;;8.32;;
46815;SDS011;32787;53.316;8.670;2022-07-04T02:15:10;11.45;;;7.55;;
46815;SDS011;32787;53.316;8.670;2022-07-04T02:17:36;11.77;;;7.28;;
46815;SDS011;32787;53.316;8.670;2022-07-04T02:20:02;11.52;;;7.97;;
46815;SDS011;32787;53.316;8.670;2022-07-04T02:22:29;12.25;;;8.40;;
46815;SDS011;32787;53.316;8.670;2022-07-04T02:24:55;12.60;;;7.80;;
46815;SDS011;32787;53.316;8.670;2022-07-04T02:27:21;9.85;;;6.63;;
46815;SDS011;32787;53.316;8.670;2022-07-04T02:29:47;13.65;;;7.13;;
46815;SDS011;32787;53.316;8.670;2022-07-04T02:32:12;12.98;;;7.57;;
46815;SDS011;32787;53.316;8.670;2022-07-04T02:34:38;11.38;;;7.45;;
46815;SDS011;32787;53.316;8.670;2022-07-04T02:37:04;9.57;;;7.38;;
46815;SDS011;32787;53.316;8.670;2022-07-04T02:39:29;12.55;;;7.35;;
46815;SDS011;32787;53.316;8.670;2022-07-04T02:41:55;13.65;;;7.65;;
46815;SDS011;32787;53.316;8.670;2022-07-04T02:44:20;13.98;;;7.47;;
46815;SDS011;32787;53.316;8.670;2022-07-04T02:46:46;14.57;;;7.70;;
46815;SDS011;32787;53.316;8.670;2022-07-04T02:49:12;13.15;;;7.35;;
46815;SDS011;32787;53.316;8.670;2022-07-04T02:51:37;14.27;;;7.95;;
46815;SDS011;32787;53.316;8.670;2022-07-04T02:54:03;12.02;;;7.20;;
46815;SDS011;32787;53.316;8.670;2022-07-04T02:56:29;12.93;;;7.32;;
46815;SDS011;32787;53.316;8.670;2022-07-04T02:58:54;16.05;;;7.93;;
46815;SDS011;32787;53.316;8.670;2022-07-04T03:01:20;15.93;;;8.27;;
46815;SDS011;32787;53.316;8.670;2022-07-04T03:03:46;12.15;;;7.93;;
46815;SDS011;32787;53.316;8.670;2022-07-04T03:06:12;11.40;;;7.32;;
46815;SDS011;32787;53.316;8.670;2022-07-04T03:08:38;14.15;;;7.43;;
46815;SDS011;32787;53.316;8.670;2022-07-04T03:11:05;14.75;;;8.00;;
46815;SDS011;32787;53.316;8.670;2022-07-04T03:13:31;12.80;;;8.02;;
46815;SDS011;32787;53.316;8.670;2022-07-04T03:15:57;11.65;;;7.43;;
46815;SDS011;32787;53.316;8.670;2022-07-04T03:18:23;10.85;;;6.88;;
46815;SDS011;32787;53.316;8.670;2022-07-04T03:20:49;12.60;;;7.38;;
46815;SDS011;32787;53.316;8.670;2022-07-04T03:23:14;13.15;;;7.05;;
46815;SDS011;32787;53.316;8.670;2022-07-04T03:25:40;12.13;;;7.53;;
46815;SDS011;32787;53.316;8.670;2022-07-04T03:28:06;15.57;;;7.97;;
46815;SDS011;32787;53.316;8.670;2022-07-04T03:30:32;10.55;;;7.18;;
46815;SDS011;32787;53.316;8.670;2022-07-04T03:32:58;10.85;;;7.15;;
46815;SDS011;32787;53.316;8.670;2022-07-04T03:35:24;13.27;;;7.53;;
46815;SDS011;32787;53.316;8.670;2022-07-04T03:37:50;11.68;;;7.00;;
46815;SDS011;32787;53.316;8.670;2022-07-04T03:40:16;12.43;;;7.05;;
46815;SDS011;32787;53.316;8.670;2022-07-04T03:42:42;11.77;;;6.70;;
46815;SDS011;32787;53.316;8.670;2022-07-04T03:45:09;12.02;;;6.38;;
46815;SDS011;32787;53.316;8.670;2022-07-04T03:47:35;10.07;;;6.43;;
46815;SDS011;32787;53.316;8.670;2022-07-04T03:50:00;9.15;;;6.72;;
46815;SDS011;32787;53.316;8.670;2022-07-04T03:52:26;12.13;;;6.32;;
46815;SDS011;32787;53.316;8.670;2022-07-04T03:54:52;10.57;;;6.05;;
46815;SDS011;32787;53.316;8.670;2022-07-04T03:57:18;14.52;;;7.18;;
46815;SDS011;32787;53.316;8.670;2022-07-04T03:59:44;11.35;;;7.13;;
46815;SDS011;32787;53.316;8.670;2022-07-04T04:02:09;11.43;;;7.18;;
46815;SDS011;32787;53.316;8.670;2022-07-04T04:04:35;15.48;;;7.40;;
46815;SDS011;32787;53.316;8.670;2022-07-04T04:07:19;15.13;;;7.70;;
46815;SDS011;32787;53.316;8.670;2022-07-04T04:09:44;13.40;;;7.32;;
46815;SDS011;32787;53.316;8.670;2022-07-04T04:12:10;13.60;;;7.93;;
46815;SDS011;32787;53.316;8.670;2022-07-04T04:14:35;11.35;;;6.78;;
46815;SDS011;32787;53.316;8.670;2022-07-04T04:17:01;14.43;;;7.90;;
46815;SDS011;32787;53.316;8.670;2022-07-04T04:19:27;12.25;;;7.97;;
46815;SDS011;32787;53.316;8.670;2022-07-04T04:21:53;16.60;;;7.50;;
46815;SDS011;32787;53.316;8.670;2022-07-04T04:24:18;12.25;;;6.88;;
46815;SDS011;32787;53.316;8.670;2022-07-04T04:26:44;15.18;;;7.55;;
46815;SDS011;32787;53.316;8.670;2022-07-04T04:29:09;12.75;;;7.40;;
46815;SDS011;32787;53.316;8.670;2022-07-04T04:31:35;15.93;;;7.47;;
46815;SDS011;32787;53.316;8.670;2022-07-04T04:34:01;11.57;;;7.13;;
46815;SDS011;32787;53.316;8.670;2022-07-04T04:36:26;11.88;;;7.50;;
46815;SDS011;32787;53.316;8.670;2022-07-04T04:38:52;13.25;;;7.45;;
46815;SDS011;32787;53.316;8.670;2022-07-04T04:41:18;12.45;;;6.80;;
46815;SDS011;32787;53.316;8.670;2022-07-04T04:43:43;13.15;;;7.45;;
46815;SDS011;32787;53.316;8.670;2022-07-04T04:46:09;15.38;;;8.25;;
46815;SDS011;32787;53.316;8.670;2022-07-04T04:48:35;18.05;;;10.07;;
46815;SDS011;32787;53.316;8.670;2022-07-04T04:51:00;15.93;;;8.02;;
46815;SDS011;32787;53.316;8.670;2022-07-04T04:53:26;17.77;;;7.20;;
46815;SDS011;32787;53.316;8.670;2022-07-04T04:55:52;12.82;;;6.97;;
46815;SDS011;32787;53.316;8.670;2022-07-04T04:58:21;11.82;;;7.03;;
46815;SDS011;32787;53.316;8.670;2022-07-04T05:00:47;15.63;;;7.63;;
46815;SDS011;32787;53.316;8.670;2022-07-04T05:03:15;12.40;;;7.05;;
46815;SDS011;32787;53.316;8.670;2022-07-04T05:05:41;16.58;;;7.35;;
46815;SDS011;32787;53.316;8.670;2022-07-04T05:08:07;11.00;;;6.90;;
46815;SDS011;32787;53.316;8.670;2022-07-04T05:10:33;13.05;;;6.93;;
46815;SDS011;32787;53.316;8.670;2022-07-04T05:12:59;14.52;;;7.13;;
46815;SDS011;32787;53.316;8.670;2022-07-04T05:15:24;11.00;;;6.65;;
46815;SDS011;32787;53.316;8.670;2022-07-04T05:17:50;12.18;;;6.32;;
46815;SDS011;32787;53.316;8.670;2022-07-04T05:20:16;11.68;;;6.10;;
46815;SDS011;32787;53.316;8.670;2022-07-04T05:22:42;12.63;;;6.60;;
46815;SDS011;32787;53.316;8.670;2022-07-04T05:25:08;12.68;;;6.68;;
46815;SDS011;32787;53.316;8.670;2022-07-04T05:27:34;11.05;;;5.40;;
46815;SDS011;32787;53.316;8.670;2022-07-04T05:29:59;13.27;;;5.75;;
46815;SDS011;32787;53.316;8.670;2022-07-04T05:32:25;10.52;;;5.60;;
46815;SDS011;32787;53.316;8.670;2022-07-04T05:34:51;11.65;;;5.60;;
46815;SDS011;32787;53.316;8.670;2022-07-04T05:37:17;12.85;;;5.00;;
46815;SDS011;32787;53.316;8.670;2022-07-04T05:39:42;9.98;;;4.63;;
46815;SDS011;32787;53.316;8.670;2022-07-04T05:42:08;12.77;;;5.07;;
46815;SDS011;32787;53.316;8.670;2022-07-04T05:44:34;8.13;;;4.30;;
46815;SDS011;32787;53.316;8.670;2022-07-04T05:46:59;15.43;;;4.40;;
46815;SDS011;32787;53.316;8.670;2022-07-04T05:49:25;10.50;;;4.80;;
46815;SDS011;32787;53.316;8.670;2022-07-04T05:51:50;9.55;;;4.28;;
46815;SDS011;32787;53.316;8.670;2022-07-04T05:54:16;10.27;;;4.38;;
46815;SDS011;32787;53.316;8.670;2022-07-04T05:56:42;9.50;;;4.40;;
46815;SDS011;32787;53.316;8.670;2022-07-04T05:59:08;9.45;;;4.63;;
46815;SDS011;32787;53.316;8.670;2022-07-04T06:01:34;12.85;;;5.40;;
46815;SDS011;32787;53.316;8.670;2022-07-04T06:04:01;9.88;;;4.68;;
46815;SDS011;32787;53.316;8.670;2022-07-04T06:06:28;8.02;;;4.53;;
46815;SDS011;32787;53.316;8.670;2022-07-04T06:08:54;10.82;;;4.78;;
46815;SDS011;32787;53.316;8.670;2022-07-04T06:11:20;9.77;;;4.68;;
46815;SDS011;32787;53.316;8.670;2022-07-04T06:13:46;9.05;;;4.53;;
46815;SDS011;32787;53.316;8.670;2022-07-04T06:16:12;9.63;;;4.45;;
46815;SDS011;32787;53.316;8.670;2022-07-04T06:18:38;9.60;;;4.05;;
46815;SDS011;32787;53.316;8.670;2022-07-04T06:21:04;9.50;;;4.38;;
46815;SDS011;32787;53.316;8.670;2022-07-04T06:23:29;9.40;;;4.10;;
46815;SDS011;32787;53.316;8.670;2022-07-04T06:25:55;10.18;;;4.15;;
46815;SDS011;32787;53.316;8.670;2022-07-04T06:28:20;9.95;;;3.80;;
46815;SDS011;32787;53.316;8.670;2022-07-04T06:30:46;8.68;;;3.53;;
46815;SDS011;32787;53.316;8.670;2022-07-04T06:33:12;11.48;;;3.83;;
46815;SDS011;32787;53.316;8.670;2022-07-04T06:35:37;8.63;;;3.60;;
46815;SDS011;32787;53.316;8.670;2022-07-04T06:38:25;7.05;;;3.10;;
46815;SDS011;32787;53.316;8.670;2022-07-04T06:40:54;7.03;;;3.13;;
46815;SDS011;32787;53.316;8.670;2022-07-04T06:43:22;9.73;;;2.83;;
46815;SDS011;32787;53.316;8.670;2022-07-04T06:45:48;8.30;;;2.83;;
46815;SDS011;32787;53.316;8.670;2022-07-04T06:48:14;7.93;;;3.25;;
46815;SDS011;32787;53.316;8.670;2022-07-04T06:50:40;10.77;;;2.88;;
46815;SDS011;32787;53.316;8.670;2022-07-04T06:53:06;10.48;;;3.25;;
46815;SDS011;32787;53.316;8.670;2022-07-04T06:55:32;8.18;;;2.60;;
46815;SDS011;32787;53.316;8.670;2022-07-04T06:57:58;6.57;;;2.20;;
46815;SDS011;32787;53.316;8.670;2022-07-04T07:00:24;6.72;;;1.98;;
46815;SDS011;32787;53.316;8.670;2022-07-04T07:02:50;6.43;;;2.20;;
46815;SDS011;32787;53.316;8.670;2022-07-04T07:05:16;4.40;;;1.67;;
46815;SDS011;32787;53.316;8.670;2022-07-04T07:07:41;8.38;;;2.08;;
46815;SDS011;32787;53.316;8.670;2022-07-04T07:10:07;6.35;;;2.45;;
46815;SDS011;32787;53.316;8.670;2022-07-04T07:12:33;8.80;;;1.92;;
46815;SDS011;32787;53.316;8.670;2022-07-04T07:14:59;6.20;;;2.20;;
46815;SDS011;32787;53.316;8.670;2022-07-04T07:17:26;5.13;;;1.92;;
46815;SDS011;32787;53.316;8.670;2022-07-04T07:19:52;5.50;;;1.95;;
46815;SDS011;32787;53.316;8.670;2022-07-04T07:22:18;5.50;;;1.83;;
46815;SDS011;32787;53.316;8.670;2022-07-04T07:24:43;6.45;;;1.58;;
46815;SDS011;32787;53.316;8.670;2022-07-04T07:27:09;7.97;;;1.80;;
46815;SDS011;32787;53.316;8.670;2022-07-04T07:29:35;7.15;;;1.90;;
46815;SDS011;32787;53.316;8.670;2022-07-04T07:32:02;6.85;;;1.88;;
46815;SDS011;32787;53.316;8.670;2022-07-04T07:34:29;6.82;;;1.80;;
46815;SDS011;32787;53.316;8.670;2022-07-04T07:36:55;6.50;;;1.55;;
46815;SDS011;32787;53.316;8.670;2022-07-04T07:39:21;4.85;;;1.50;;
46815;SDS011;32787;53.316;8.670;2022-07-04T07:41:47;5.90;;;2.10;;
46815;SDS011;32787;53.316;8.670;2022-07-04T07:44:12;6.63;;;2.03;;
46815;SDS011;32787;53.316;8.670;2022-07-04T07:46:38;3.60;;;1.60;;
46815;SDS011;32787;53.316;8.670;2022-07-04T07:49:04;8.50;;;2.33;;
46815;SDS011;32787;53.316;8.670;2022-07-04T07:51:29;7.45;;;2.05;;
46815;SDS011;32787;53.316;8.670;2022-07-04T07:53:55;9.18;;;2.20;;
46815;SDS011;32787;53.316;8.670;2022-07-04T07:56:21;9.70;;;2.42;;
46815;SDS011;32787;53.316;8.670;2022-07-04T07:58:47;7.70;;;1.70;;
46815;SDS011;32787;53.316;8.670;2022-07-04T08:01:13;7.07;;;1.80;;
46815;SDS011;32787;53.316;8.670;2022-07-04T08:03:39;4.47;;;1.55;;
46815;SDS011;32787;53.316;8.670;2022-07-04T08:06:23;6.25;;;1.38;;
46815;SDS011;32787;53.316;8.670;2022-07-04T08:08:49;7.47;;;1.70;;
46815;SDS011;32787;53.316;8.670;2022-07-04T08:11:15;7.13;;;1.50;;
46815;SDS011;32787;53.316;8.670;2022-07-04T08:13:41;5.90;;;1.40;;
46815;SDS011;32787;53.316;8.670;2022-07-04T08:16:07;7.80;;;1.50;;
46815;SDS011;32787;53.316;8.670;2022-07-04T08:18:34;5.78;;;1.42;;
46815;SDS011;32787;53.316;8.670;2022-07-04T08:21:00;3.72;;;1.30;;
46815;SDS011;32787;53.316;8.670;2022-07-04T08:23:26;7.75;;;1.40;;
46815;SDS011;32787;53.316;8.670;2022-07-04T08:25:53;5.97;;;1.42;;
46815;SDS011;32787;53.316;8.670;2022-07-04T08:28:19;7.30;;;1.58;;
46815;SDS011;32787;53.316;8.670;2022-07-04T08:30:45;5.18;;;1.35;;
46815;SDS011;32787;53.316;8.670;2022-07-04T08:33:10;5.65;;;1.55;;
46815;SDS011;32787;53.316;8.670;2022-07-04T08:35:36;4.75;;;1.23;;
46815;SDS011;32787;53.316;8.670;2022-07-04T08:38:01;5.45;;;1.20;;
46815;SDS011;32787;53.316;8.670;2022-07-04T08:40:28;5.32;;;1.38;;
46815;SDS011;32787;53.316;8.670;2022-07-04T08:42:55;5.35;;;1.38;;
46815;SDS011;32787;53.316;8.670;2022-07-04T08:45:28;6.20;;;1.50;;
46815;SDS011;32787;53.316;8.670;2022-07-04T08:48:05;5.93;;;1.38;;
46815;SDS011;32787;53.316;8.670;2022-07-04T08:53:00;4.40;;;1.17;;
46815;SDS011;32787;53.316;8.670;2022-07-04T08:55:31;4.88;;;1.70;;
46815;SDS011;32787;53.316;8.670;2022-07-04T08:58:16;4.18;;;1.67;;
46815;SDS011;32787;53.316;8.670;2022-07-04T09:00:54;5.55;;;1.33;;
46815;SDS011;32787;53.316;8.670;2022-07-04T09:03:28;4.80;;;1.52;;
46815;SDS011;32787;53.316;8.670;2022-07-04T09:05:54;5.50;;;1.40;;
46815;SDS011;32787;53.316;8.670;2022-07-04T09:08:20;5.95;;;1.45;;
46815;SDS011;32787;53.316;8.670;2022-07-04T09:10:47;6.75;;;1.77;;
46815;SDS011;32787;53.316;8.670;2022-07-04T09:13:13;8.52;;;1.92;;
46815;SDS011;32787;53.316;8.670;2022-07-04T09:15:40;8.38;;;1.40;;
46815;SDS011;32787;53.316;8.670;2022-07-04T09:18:21;5.40;;;1.23;;
46815;SDS011;32787;53.316;8.670;2022-07-04T09:20:55;4.97;;;1.35;;
46815;SDS011;32787;53.316;8.670;2022-07-04T09:23:26;5.95;;;1.67;;
46815;SDS011;32787;53.316;8.670;2022-07-04T09:28:33;6.15;;;1.40;;
46815;SDS011;32787;53.316;8.670;2022-07-04T09:30:59;6.25;;;1.30;;
46815;SDS011;32787;53.316;8.670;2022-07-04T09:33:44;4.45;;;1.10;;
46815;SDS011;32787;53.316;8.670;2022-07-04T09:36:13;4.75;;;1.30;;
46815;SDS011;32787;53.316;8.670;2022-07-04T09:38:39;6.82;;;1.88;;
46815;SDS011;32787;53.316;8.670;2022-07-04T09:41:05;5.53;;;1.48;;
46815;SDS011;32787;53.316;8.670;2022-07-04T09:44:02;6.22;;;1.45;;
46815;SDS011;32787;53.316;8.670;2022-07-04T09:46:31;4.68;;;1.30;;
46815;SDS011;32787;53.316;8.670;2022-07-04T09:48:58;6.65;;;2.03;;
46815;SDS011;32787;53.316;8.670;2022-07-04T09:57:02;4.47;;;1.30;;
46815;SDS011;32787;53.316;8.670;2022-07-04T09:59:28;7.80;;;1.50;;
46815;SDS011;32787;53.316;8.670;2022-07-04T10:02:07;4.90;;;1.55;;
46815;SDS011;32787;53.316;8.670;2022-07-04T10:04:44;6.10;;;1.52;;
46815;SDS011;32787;53.316;8.670;2022-07-04T10:07:10;9.32;;;1.75;;
46815;SDS011;32787;53.316;8.670;2022-07-04T10:09:36;5.63;;;1.20;;
46815;SDS011;32787;53.316;8.670;2022-07-04T10:12:01;6.57;;;1.55;;
46815;SDS011;32787;53.316;8.670;2022-07-04T10:14:27;6.60;;;1.27;;
46815;SDS011;32787;53.316;8.670;2022-07-04T10:16:53;6.07;;;1.10;;
46815;SDS011;32787;53.316;8.670;2022-07-04T10:19:19;4.78;;;1.40;;
46815;SDS011;32787;53.316;8.670;2022-07-04T10:21:46;5.63;;;1.40;;
46815;SDS011;32787;53.316;8.670;2022-07-04T10:24:12;5.53;;;1.05;;
46815;SDS011;32787;53.316;8.670;2022-07-04T10:26:37;6.00;;;1.30;;
46815;SDS011;32787;53.316;8.670;2022-07-04T10:29:03;6.22;;;1.15;;
46815;SDS011;32787;53.316;8.670;2022-07-04T10:31:29;6.18;;;1.23;;
46815;SDS011;32787;53.316;8.670;2022-07-04T10:33:57;5.45;;;1.40;;
46815;SDS011;32787;53.316;8.670;2022-07-04T10:36:24;6.38;;;1.27;;
46815;SDS011;32787;53.316;8.670;2022-07-04T10:41:20;3.75;;;1.35;;
46815;SDS011;32787;53.316;8.670;2022-07-04T10:54:22;4.95;;;1.23;;
46815;SDS011;32787;53.316;8.670;2022-07-04T10:56:57;3.75;;;1.15;;
46815;SDS011;32787;53.316;8.670;2022-07-04T10:59:39;3.63;;;1.13;;
46815;SDS011;32787;53.316;8.670;2022-07-04T11:02:32;6.43;;;1.00;;
46815;SDS011;32787;53.316;8.670;2022-07-04T11:17:58;4.90;;;1.15;;
46815;SDS011;32787;53.316;8.670;2022-07-04T11:20:25;4.78;;;1.00;;
46815;SDS011;32787;53.316;8.670;2022-07-04T11:22:53;6.40;;;0.98;;
46815;SDS011;32787;53.316;8.670;2022-07-04T11:25:32;3.35;;;0.90;;
46815;SDS011;32787;53.316;8.670;2022-07-04T11:27:57;7.53;;;0.90;;
46815;SDS011;32787;53.316;8.670;2022-07-04T11:30:47;10.40;;;1.20;;
46815;SDS011;32787;53.316;8.670;2022-07-04T11:33:21;3.58;;;0.85;;
46815;SDS011;32787;53.316;8.670;2022-07-04T11:36:04;2.13;;;0.93;;
46815;SDS011;32787;53.316;8.670;2022-07-04T11:38:44;4.95;;;1.02;;
46815;SDS011;32787;53.316;8.670;2022-07-04T11:41:11;7.32;;;1.20;;
46815;SDS011;32787;53.316;8.670;2022-07-04T11:43:56;6.00;;;0.88;;
46815;SDS011;32787;53.316;8.670;2022-07-04T11:46:51;7.80;;;1.15;;
46815;SDS011;32787;53.316;8.670;2022-07-04T11:49:26;6.95;;;1.13;;
46815;SDS011;32787;53.316;8.670;2022-07-04T11:51:52;4.30;;;0.90;;
46815;SDS011;32787;53.316;8.670;2022-07-04T11:54:20;5.90;;;0.95;;
46815;SDS011;32787;53.316;8.670;2022-07-04T11:56:46;5.30;;;1.05;;
46815;SDS011;32787;53.316;8.670;2022-07-04T11:59:14;6.38;;;1.20;;
46815;SDS011;32787;53.316;8.670;2022-07-04T12:01:41;2.87;;;1.00;;
46815;SDS011;32787;53.316;8.670;2022-07-04T12:04:26;7.95;;;1.27;;
46815;SDS011;32787;53.316;8.670;2022-07-04T12:06:52;5.90;;;1.05;;
46815;SDS011;32787;53.316;8.670;2022-07-04T12:09:17;5.85;;;1.40;;
46815;SDS011;32787;53.316;8.670;2022-07-04T12:12:16;4.20;;;1.30;;
46815;SDS011;32787;53.316;8.670;2022-07-04T12:14:36;4.80;;;1.10;;
46815;SDS011;32787;53.316;8.670;2022-07-04T12:17:16;7.13;;;1.17;;
46815;SDS011;32787;53.316;8.670;2022-07-04T12:19:53;5.25;;;1.23;;
46815;SDS011;32787;53.316;8.670;2022-07-04T12:24:59;4.67;;;1.50;;
46815;SDS011;32787;53.316;8.670;2022-07-04T12:27:27;4.65;;;1.20;;
46815;SDS011;32787;53.316;8.670;2022-07-04T12:29:53;3.10;;;0.90;;
46815;SDS011;32787;53.316;8.670;2022-07-04T12:32:20;6.22;;;1.30;;
46815;SDS011;32787;53.316;8.670;2022-07-04T12:34:46;6.20;;;1.33;;
46815;SDS011;32787;53.316;8.670;2022-07-04T12:37:12;4.75;;;1.52;;
46815;SDS011;32787;53.316;8.670;2022-07-04T12:39:40;9.00;;;1.65;;
46815;SDS011;32787;53.316;8.670;2022-07-04T12:44:37;5.93;;;1.65;;
46815;SDS011;32787;53.316;8.670;2022-07-04T12:47:05;5.60;;;1.38;;
46815;SDS011;32787;53.316;8.670;2022-07-04T12:49:31;5.85;;;1.10;;
46815;SDS011;32787;53.316;8.670;2022-07-04T12:52:31;8.18;;;1.42;;
46815;SDS011;32787;53.316;8.670;2022-07-04T12:55:01;3.38;;;1.13;;
46815;SDS011;32787;53.316;8.670;2022-07-04T12:57:32;4.63;;;1.00;;
46815;SDS011;32787;53.316;8.670;2022-07-04T12:59:57;5.13;;;1.35;;
46815;SDS011;32787;53.316;8.670;2022-07-04T13:02:23;3.60;;;1.20;;
46815;SDS011;32787;53.316;8.670;2022-07-04T13:04:48;5.70;;;1.30;;
46815;SDS011;32787;53.316;8.670;2022-07-04T13:07:17;6.20;;;1.30;;
46815;SDS011;32787;53.316;8.670;2022-07-04T13:09:44;4.55;;;1.38;;
46815;SDS011;32787;53.316;8.670;2022-07-04T13:12:11;5.53;;;1.30;;
46815;SDS011;32787;53.316;8.670;2022-07-04T13:14:49;5.78;;;1.70;;
46815;SDS011;32787;53.316;8.670;2022-07-04T13:17:16;5.50;;;1.50;;
46815;SDS011;32787;53.316;8.670;2022-07-04T13:19:42;6.47;;;1.17;;
46815;SDS011;32787;53.316;8.670;2022-07-04T13:22:08;4.05;;;1.20;;
46815;SDS011;32787;53.316;8.670;2022-07-04T13:24:34;5.85;;;1.50;;
46815;SDS011;32787;53.316;8.670;2022-07-04T13:26:59;4.38;;;1.20;;
46815;SDS011;32787;53.316;8.670;2022-07-04T13:29:25;2.97;;;1.10;;
46815;SDS011;32787;53.316;8.670;2022-07-04T13:31:50;4.25;;;1.23;;
46815;SDS011;32787;53.316;8.670;2022-07-04T13:34:16;5.88;;;1.20;;
46815;SDS011;32787;53.316;8.670;2022-07-04T13:36:43;4.50;;;1.20;;
46815;SDS011;32787;53.316;8.670;2022-07-04T13:39:09;5.93;;;1.20;;
46815;SDS011;32787;53.316;8.670;2022-07-04T13:41:36;5.43;;;1.45;;
46815;SDS011;32787;53.316;8.670;2022-07-04T13:44:02;3.38;;;1.00;;
46815;SDS011;32787;53.316;8.670;2022-07-04T13:46:30;4.10;;;1.02;;
46815;SDS011;32787;53.316;8.670;2022-07-04T13:48:59;4.28;;;1.13;;
46815;SDS011;32787;53.316;8.670;2022-07-04T13:51:31;3.22;;;1.05;;
46815;SDS011;32787;53.316;8.670;2022-07-04T13:53:57;6.38;;;1.17;;
46815;SDS011;32787;53.316;8.670;2022-07-04T13:56:23;2.97;;;1.10;;
46815;SDS011;32787;53.316;8.670;2022-07-04T13:58:49;2.75;;;1.20;;
46815;SDS011;32787;53.316;8.670;2022-07-04T14:01:14;4.05;;;1.00;;
46815;SDS011;32787;53.316;8.670;2022-07-04T14:03:43;5.50;;;1.10;;
46815;SDS011;32787;53.316;8.670;2022-07-04T14:06:09;4.30;;;1.10;;
46815;SDS011;32787;53.316;8.670;2022-07-04T14:08:34;4.55;;;1.23;;
46815;SDS011;32787;53.316;8.670;2022-07-04T14:11:00;5.22;;;1.20;;
46815;SDS011;32787;53.316;8.670;2022-07-04T14:13:26;4.40;;;1.10;;
46815;SDS011;32787;53.316;8.670;2022-07-04T14:15:52;3.88;;;1.00;;
46815;SDS011;32787;53.316;8.670;2022-07-04T14:18:18;5.65;;;1.17;;
46815;SDS011;32787;53.316;8.670;2022-07-04T14:20:43;3.95;;;1.33;;
46815;SDS011;32787;53.316;8.670;2022-07-04T14:23:10;3.15;;;0.85;;
46815;SDS011;32787;53.316;8.670;2022-07-04T14:25:36;2.58;;;0.95;;
46815;SDS011;32787;53.316;8.670;2022-07-04T14:28:02;5.05;;;1.25;;
46815;SDS011;32787;53.316;8.670;2022-07-04T14:30:28;3.45;;;0.95;;
46815;SDS011;32787;53.316;8.670;2022-07-04T14:32:54;5.13;;;1.10;;
46815;SDS011;32787;53.316;8.670;2022-07-04T14:35:19;4.97;;;1.08;;
46815;SDS011;32787;53.316;8.670;2022-07-04T14:37:45;3.67;;;1.13;;
46815;SDS011;32787;53.316;8.670;2022-07-04T14:40:11;2.92;;;1.00;;
46815;SDS011;32787;53.316;8.670;2022-07-04T14:42:37;2.80;;;1.20;;
46815;SDS011;32787;53.316;8.670;2022-07-04T14:45:03;4.65;;;1.00;;
46815;SDS011;32787;53.316;8.670;2022-07-04T14:47:29;4.68;;;1.10;;
46815;SDS011;32787;53.316;8.670;2022-07-04T14:49:58;2.78;;;1.10;;
46815;SDS011;32787;53.316;8.670;2022-07-04T14:52:24;3.10;;;1.02;;
46815;SDS011;32787;53.316;8.670;2022-07-04T14:54:49;2.78;;;1.08;;
46815;SDS011;32787;53.316;8.670;2022-07-04T14:57:15;3.72;;;1.10;;
46815;SDS011;32787;53.316;8.670;2022-07-04T14:59:41;5.50;;;1.20;;
46815;SDS011;32787;53.316;8.670;2022-07-04T15:02:06;6.53;;;1.20;;
46815;SDS011;32787;53.316;8.670;2022-07-04T15:04:32;3.43;;;1.23;;
46815;SDS011;32787;53.316;8.670;2022-07-04T15:06:58;4.95;;;1.23;;
46815;SDS011;32787;53.316;8.670;2022-07-04T15:09:23;3.78;;;1.20;;
46815;SDS011;32787;53.316;8.670;2022-07-04T15:11:49;4.10;;;1.23;;
46815;SDS011;32787;53.316;8.670;2022-07-04T15:14:16;4.60;;;1.20;;
46815;SDS011;32787;53.316;8.670;2022-07-04T15:16:42;3.92;;;1.05;;
46815;SDS011;32787;53.316;8.670;2022-07-04T15:19:08;3.03;;;1.10;;
46815;SDS011;32787;53.316;8.670;2022-07-04T15:21:34;3.85;;;1.10;;
46815;SDS011;32787;53.316;8.670;2022-07-04T15:24:18;2.25;;;0.95;;
46815;SDS011;32787;53.316;8.670;2022-07-04T15:26:47;4.97;;;1.10;;